sensor_id;sensor_type;location;lat;lon;timestamp;P1;durP1;ratioP1;P2;durP2;ratioP2
66374;SDS011;53173;52.176;5.314;2023-05-15T00:01:26;18.35;;;13.43;;
66374;SDS011;53173;52.176;5.314;2023-05-15T00:03:53;18.50;;;14.93;;
66374;SDS011;53173;52.176;5.314;2023-05-15T00:06:20;22.33;;;14.88;;
66374;SDS011;53173;52.176;5.314;2023-05-15T00:08:47;18.73;;;14.75;;
66374;SDS011;53173;52.176;5.314;2023-05-15T00:11:14;19.27;;;13.57;;
66374;SDS011;53173;52.176;5.314;2023-05-15T00:13:41;16.70;;;13.90;;
66374;SDS011;53173;52.176;5.314;2023-05-15T00:16:13;18.85;;;15.23;;
66374;SDS011;53173;52.176;5.314;2023-05-15T00:18:40;20.13;;;14.95;;
66374;SDS011;53173;52.176;5.314;2023-05-15T00:21:07;18.83;;;14.48;;
66374;SDS011;53173;52.176;5.314;2023-05-15T00:23:34;18.55;;;14.43;;
66374;SDS011;53173;52.176;5.314;2023-05-15T00:26:11;18.90;;;14.77;;
66374;SDS011;53173;52.176;5.314;2023-05-15T00:28:40;18.70;;;14.30;;
66374;SDS011;53173;52.176;5.314;2023-05-15T00:31:07;19.80;;;15.55;;
66374;SDS011;53173;52.176;5.314;2023-05-15T00:33:34;18.65;;;15.82;;
66374;SDS011;53173;52.176;5.314;2023-05-15T00:36:17;22.85;;;15.70;;
66374;SDS011;53173;52.176;5.314;2023-05-15T00:38:49;23.23;;;16.30;;
66374;SDS011;53173;52.176;5.314;2023-05-15T00:41:17;20.05;;;16.98;;
66374;SDS011;53173;52.176;5.314;2023-05-15T00:43:44;20.83;;;16.65;;
66374;SDS011;53173;52.176;5.314;2023-05-15T00:46:18;19.85;;;16.95;;
66374;SDS011;53173;52.176;5.314;2023-05-15T00:48:47;17.70;;;15.18;;
66374;SDS011;53173;52.176;5.314;2023-05-15T00:51:16;23.23;;;16.35;;
66374;SDS011;53173;52.176;5.314;2023-05-15T00:53:43;19.40;;;16.65;;
66374;SDS011;53173;52.176;5.314;2023-05-15T00:59:02;21.02;;;16.35;;
66374;SDS011;53173;52.176;5.314;2023-05-15T01:01:31;25.85;;;18.65;;
66374;SDS011;53173;52.176;5.314;2023-05-15T01:03:59;25.38;;;18.73;;
66374;SDS011;53173;52.176;5.314;2023-05-15T01:09:23;23.40;;;18.08;;
66374;SDS011;53173;52.176;5.314;2023-05-15T01:11:53;22.00;;;18.85;;
66374;SDS011;53173;52.176;5.314;2023-05-15T01:14:20;22.63;;;18.73;;
66374;SDS011;53173;52.176;5.314;2023-05-15T01:16:47;26.38;;;18.45;;
66374;SDS011;53173;52.176;5.314;2023-05-15T01:19:14;24.77;;;18.80;;
66374;SDS011;53173;52.176;5.314;2023-05-15T01:30:08;22.73;;;18.30;;
66374;SDS011;53173;52.176;5.314;2023-05-15T01:33:20;20.02;;;13.65;;
66374;SDS011;53173;52.176;5.314;2023-05-15T01:38:53;21.85;;;17.85;;
66374;SDS011;53173;52.176;5.314;2023-05-15T01:41:23;20.58;;;16.85;;
66374;SDS011;53173;52.176;5.314;2023-05-15T01:43:59;20.90;;;17.52;;
66374;SDS011;53173;52.176;5.314;2023-05-15T01:46:38;22.40;;;18.07;;
66374;SDS011;53173;52.176;5.314;2023-05-15T01:49:11;19.63;;;16.67;;
66374;SDS011;53173;52.176;5.314;2023-05-15T01:51:39;29.58;;;19.75;;
66374;SDS011;53173;52.176;5.314;2023-05-15T01:54:09;22.13;;;18.33;;
66374;SDS011;53173;52.176;5.314;2023-05-15T01:56:54;23.30;;;17.67;;
66374;SDS011;53173;52.176;5.314;2023-05-15T01:59:22;23.45;;;18.63;;
66374;SDS011;53173;52.176;5.314;2023-05-15T02:01:51;30.90;;;20.33;;
66374;SDS011;53173;52.176;5.314;2023-05-15T02:04:18;28.77;;;20.55;;
66374;SDS011;53173;52.176;5.314;2023-05-15T02:06:46;27.90;;;19.88;;
66374;SDS011;53173;52.176;5.314;2023-05-15T02:09:15;25.23;;;20.40;;
66374;SDS011;53173;52.176;5.314;2023-05-15T02:11:43;24.95;;;19.67;;
66374;SDS011;53173;52.176;5.314;2023-05-15T02:14:10;33.42;;;21.55;;
66374;SDS011;53173;52.176;5.314;2023-05-15T02:19:43;30.42;;;21.95;;
66374;SDS011;53173;52.176;5.314;2023-05-15T02:22:09;28.23;;;22.17;;
66374;SDS011;53173;52.176;5.314;2023-05-15T02:24:38;28.65;;;22.70;;
66374;SDS011;53173;52.176;5.314;2023-05-15T02:33:04;34.35;;;23.35;;
66374;SDS011;53173;52.176;5.314;2023-05-15T02:38:51;30.05;;;23.15;;
66374;SDS011;53173;52.176;5.314;2023-05-15T02:41:19;31.63;;;24.10;;
66374;SDS011;53173;52.176;5.314;2023-05-15T02:43:49;29.92;;;23.10;;
66374;SDS011;53173;52.176;5.314;2023-05-15T02:46:28;38.13;;;25.55;;
66374;SDS011;53173;52.176;5.314;2023-05-15T02:48:55;45.95;;;26.90;;
66374;SDS011;53173;52.176;5.314;2023-05-15T02:51:22;41.20;;;27.30;;
66374;SDS011;53173;52.176;5.314;2023-05-15T02:53:49;43.95;;;26.50;;
66374;SDS011;53173;52.176;5.314;2023-05-15T03:00:19;39.42;;;26.85;;
66374;SDS011;53173;52.176;5.314;2023-05-15T03:02:46;43.55;;;27.65;;
66374;SDS011;53173;52.176;5.314;2023-05-15T03:05:13;36.95;;;27.70;;
66374;SDS011;53173;52.176;5.314;2023-05-15T03:07:40;40.47;;;27.70;;
66374;SDS011;53173;52.176;5.314;2023-05-15T03:10:07;40.42;;;28.33;;
66374;SDS011;53173;52.176;5.314;2023-05-15T03:12:34;41.42;;;27.77;;
66374;SDS011;53173;52.176;5.314;2023-05-15T03:15:01;41.65;;;27.55;;
66374;SDS011;53173;52.176;5.314;2023-05-15T03:17:29;40.53;;;26.65;;
66374;SDS011;53173;52.176;5.314;2023-05-15T03:19:56;38.75;;;25.98;;
66374;SDS011;53173;52.176;5.314;2023-05-15T03:22:23;37.45;;;26.38;;
66374;SDS011;53173;52.176;5.314;2023-05-15T03:24:50;40.65;;;25.77;;
66374;SDS011;53173;52.176;5.314;2023-05-15T03:30:09;39.17;;;25.20;;
66374;SDS011;53173;52.176;5.314;2023-05-15T03:32:36;34.72;;;25.65;;
66374;SDS011;53173;52.176;5.314;2023-05-15T03:35:03;40.65;;;25.73;;
66374;SDS011;53173;52.176;5.314;2023-05-15T03:37:31;39.42;;;24.13;;
66374;SDS011;53173;52.176;5.314;2023-05-15T03:39:58;38.08;;;24.73;;
66374;SDS011;53173;52.176;5.314;2023-05-15T03:42:24;39.78;;;25.58;;
66374;SDS011;53173;52.176;5.314;2023-05-15T03:44:53;37.33;;;25.45;;
66374;SDS011;53173;52.176;5.314;2023-05-15T03:47:21;41.60;;;25.45;;
66374;SDS011;53173;52.176;5.314;2023-05-15T03:49:51;36.40;;;25.42;;
66374;SDS011;53173;52.176;5.314;2023-05-15T03:52:18;31.88;;;23.23;;
66374;SDS011;53173;52.176;5.314;2023-05-15T03:54:45;32.72;;;22.40;;
66374;SDS011;53173;52.176;5.314;2023-05-15T03:57:18;34.80;;;23.05;;
66374;SDS011;53173;52.176;5.314;2023-05-15T03:59:45;33.65;;;24.48;;
66374;SDS011;53173;52.176;5.314;2023-05-15T04:02:12;31.83;;;23.35;;
66374;SDS011;53173;52.176;5.314;2023-05-15T04:04:39;34.85;;;24.85;;
66374;SDS011;53173;52.176;5.314;2023-05-15T04:07:11;31.25;;;24.35;;
66374;SDS011;53173;52.176;5.314;2023-05-15T04:09:38;36.80;;;24.88;;
66374;SDS011;53173;52.176;5.314;2023-05-15T04:12:05;35.35;;;25.90;;
66374;SDS011;53173;52.176;5.314;2023-05-15T04:14:32;37.13;;;25.30;;
66374;SDS011;53173;52.176;5.314;2023-05-15T04:16:59;31.60;;;23.23;;
66374;SDS011;53173;52.176;5.314;2023-05-15T04:19:26;30.20;;;24.33;;
66374;SDS011;53173;52.176;5.314;2023-05-15T04:21:52;34.60;;;24.48;;
66374;SDS011;53173;52.176;5.314;2023-05-15T04:24:19;33.83;;;23.67;;
66374;SDS011;53173;52.176;5.314;2023-05-15T04:29:44;33.78;;;23.98;;
66374;SDS011;53173;52.176;5.314;2023-05-15T04:32:11;32.60;;;25.23;;
66374;SDS011;53173;52.176;5.314;2023-05-15T04:34:38;35.22;;;24.65;;
66374;SDS011;53173;52.176;5.314;2023-05-15T04:39:59;37.30;;;25.20;;
66374;SDS011;53173;52.176;5.314;2023-05-15T04:42:25;31.70;;;23.52;;
66374;SDS011;53173;52.176;5.314;2023-05-15T04:44:53;35.78;;;24.75;;
66374;SDS011;53173;52.176;5.314;2023-05-15T04:47:19;38.13;;;24.85;;
66374;SDS011;53173;52.176;5.314;2023-05-15T04:49:46;30.83;;;24.73;;
66374;SDS011;53173;52.176;5.314;2023-05-15T04:52:15;35.80;;;25.83;;
66374;SDS011;53173;52.176;5.314;2023-05-15T04:54:42;30.83;;;24.05;;
66374;SDS011;53173;52.176;5.314;2023-05-15T05:00:02;27.98;;;23.33;;
66374;SDS011;53173;52.176;5.314;2023-05-15T05:02:35;30.73;;;22.63;;
66374;SDS011;53173;52.176;5.314;2023-05-15T05:05:02;27.92;;;23.00;;
66374;SDS011;53173;52.176;5.314;2023-05-15T05:07:29;31.45;;;23.50;;
66374;SDS011;53173;52.176;5.314;2023-05-15T05:09:56;24.33;;;19.92;;
66374;SDS011;53173;52.176;5.314;2023-05-15T05:12:23;25.25;;;20.40;;
66374;SDS011;53173;52.176;5.314;2023-05-15T05:14:53;22.45;;;20.08;;
66374;SDS011;53173;52.176;5.314;2023-05-15T05:17:20;27.02;;;20.58;;
66374;SDS011;53173;52.176;5.314;2023-05-15T05:19:48;23.42;;;20.95;;
66374;SDS011;53173;52.176;5.314;2023-05-15T05:22:14;24.90;;;20.25;;
66374;SDS011;53173;52.176;5.314;2023-05-15T05:24:41;25.05;;;19.05;;
66374;SDS011;53173;52.176;5.314;2023-05-15T05:27:08;22.63;;;19.95;;
66374;SDS011;53173;52.176;5.314;2023-05-15T05:29:36;27.73;;;20.83;;
66374;SDS011;53173;52.176;5.314;2023-05-15T05:32:03;26.90;;;22.45;;
66374;SDS011;53173;52.176;5.314;2023-05-15T05:34:30;24.30;;;21.52;;
66374;SDS011;53173;52.176;5.314;2023-05-15T05:36:57;25.95;;;19.80;;
66374;SDS011;53173;52.176;5.314;2023-05-15T05:39:24;21.80;;;19.60;;
66374;SDS011;53173;52.176;5.314;2023-05-15T05:41:51;21.52;;;19.30;;
66374;SDS011;53173;52.176;5.314;2023-05-15T05:44:18;22.42;;;20.08;;
66374;SDS011;53173;52.176;5.314;2023-05-15T05:46:50;19.20;;;17.40;;
66374;SDS011;53173;52.176;5.314;2023-05-15T05:49:18;22.35;;;19.95;;
66374;SDS011;53173;52.176;5.314;2023-05-15T05:51:44;24.27;;;18.75;;
66374;SDS011;53173;52.176;5.314;2023-05-15T05:54:12;21.88;;;19.60;;
66374;SDS011;53173;52.176;5.314;2023-05-15T05:56:45;20.02;;;17.98;;
66374;SDS011;53173;52.176;5.314;2023-05-15T05:59:12;22.65;;;19.30;;
66374;SDS011;53173;52.176;5.314;2023-05-15T06:01:39;20.90;;;18.67;;
66374;SDS011;53173;52.176;5.314;2023-05-15T06:04:07;22.00;;;18.88;;
66374;SDS011;53173;52.176;5.314;2023-05-15T06:06:39;21.67;;;19.15;;
66374;SDS011;53173;52.176;5.314;2023-05-15T06:09:06;24.45;;;21.13;;
66374;SDS011;53173;52.176;5.314;2023-05-15T06:11:33;26.20;;;20.63;;
66374;SDS011;53173;52.176;5.314;2023-05-15T06:14:00;23.08;;;20.00;;
66374;SDS011;53173;52.176;5.314;2023-05-15T06:16:27;25.70;;;20.50;;
66374;SDS011;53173;52.176;5.314;2023-05-15T06:18:54;23.42;;;20.88;;
66374;SDS011;53173;52.176;5.314;2023-05-15T06:21:21;24.25;;;19.27;;
66374;SDS011;53173;52.176;5.314;2023-05-15T06:23:48;23.52;;;19.00;;
66374;SDS011;53173;52.176;5.314;2023-05-15T06:26:21;24.08;;;19.92;;
66374;SDS011;53173;52.176;5.314;2023-05-15T06:28:48;21.27;;;19.10;;
66374;SDS011;53173;52.176;5.314;2023-05-15T06:31:14;22.60;;;19.35;;
66374;SDS011;53173;52.176;5.314;2023-05-15T06:33:42;21.67;;;18.27;;
66374;SDS011;53173;52.176;5.314;2023-05-15T06:36:15;22.73;;;20.33;;
66374;SDS011;53173;52.176;5.314;2023-05-15T06:38:42;22.42;;;20.10;;
66374;SDS011;53173;52.176;5.314;2023-05-15T06:41:09;26.73;;;19.52;;
66374;SDS011;53173;52.176;5.314;2023-05-15T06:43:35;22.77;;;19.13;;
66374;SDS011;53173;52.176;5.314;2023-05-15T06:46:03;22.50;;;18.75;;
66374;SDS011;53173;52.176;5.314;2023-05-15T06:48:30;22.70;;;20.38;;
66374;SDS011;53173;52.176;5.314;2023-05-15T06:50:58;24.63;;;19.45;;
66374;SDS011;53173;52.176;5.314;2023-05-15T06:53:24;19.58;;;17.65;;
66374;SDS011;53173;52.176;5.314;2023-05-15T06:55:57;19.73;;;17.77;;
66374;SDS011;53173;52.176;5.314;2023-05-15T06:58:23;23.98;;;18.92;;
66374;SDS011;53173;52.176;5.314;2023-05-15T07:00:50;20.02;;;18.08;;
66374;SDS011;53173;52.176;5.314;2023-05-15T07:03:20;21.58;;;18.90;;
66374;SDS011;53173;52.176;5.314;2023-05-15T07:05:58;19.40;;;17.30;;
66374;SDS011;53173;52.176;5.314;2023-05-15T07:08:25;21.25;;;18.20;;
66374;SDS011;53173;52.176;5.314;2023-05-15T07:10:52;19.70;;;17.75;;
66374;SDS011;53173;52.176;5.314;2023-05-15T07:13:19;20.75;;;18.58;;
66374;SDS011;53173;52.176;5.314;2023-05-15T07:15:51;21.02;;;17.52;;
66374;SDS011;53173;52.176;5.314;2023-05-15T07:18:18;23.85;;;18.50;;
66374;SDS011;53173;52.176;5.314;2023-05-15T07:20:45;22.85;;;19.85;;
66374;SDS011;53173;52.176;5.314;2023-05-15T07:23:12;21.85;;;19.20;;
66374;SDS011;53173;52.176;5.314;2023-05-15T07:25:44;31.13;;;20.13;;
66374;SDS011;53173;52.176;5.314;2023-05-15T07:28:11;20.08;;;17.98;;
66374;SDS011;53173;52.176;5.314;2023-05-15T07:30:38;21.42;;;18.65;;
66374;SDS011;53173;52.176;5.314;2023-05-15T07:33:05;21.35;;;19.13;;
66374;SDS011;53173;52.176;5.314;2023-05-15T07:35:32;22.75;;;18.70;;
66374;SDS011;53173;52.176;5.314;2023-05-15T07:37:59;26.50;;;20.05;;
66374;SDS011;53173;52.176;5.314;2023-05-15T07:40:26;20.95;;;18.70;;
66374;SDS011;53173;52.176;5.314;2023-05-15T07:42:53;24.60;;;18.88;;
66374;SDS011;53173;52.176;5.314;2023-05-15T07:45:20;22.70;;;19.77;;
66374;SDS011;53173;52.176;5.314;2023-05-15T07:47:48;21.42;;;19.05;;
66374;SDS011;53173;52.176;5.314;2023-05-15T07:50:15;21.52;;;19.20;;
66374;SDS011;53173;52.176;5.314;2023-05-15T07:52:42;20.02;;;17.92;;
66374;SDS011;53173;52.176;5.314;2023-05-15T07:55:09;20.75;;;17.88;;
66374;SDS011;53173;52.176;5.314;2023-05-15T07:57:38;19.75;;;17.65;;
66374;SDS011;53173;52.176;5.314;2023-05-15T08:00:07;26.30;;;18.10;;
66374;SDS011;53173;52.176;5.314;2023-05-15T08:02:39;18.77;;;16.90;;
66374;SDS011;53173;52.176;5.314;2023-05-15T08:05:06;24.10;;;18.83;;
66374;SDS011;53173;52.176;5.314;2023-05-15T08:07:34;23.80;;;18.55;;
66374;SDS011;53173;52.176;5.314;2023-05-15T08:10:01;20.20;;;18.13;;
66374;SDS011;53173;52.176;5.314;2023-05-15T08:12:31;19.33;;;17.23;;
66374;SDS011;53173;52.176;5.314;2023-05-15T08:14:59;20.42;;;17.27;;
66374;SDS011;53173;52.176;5.314;2023-05-15T08:17:26;25.27;;;17.38;;
66374;SDS011;53173;52.176;5.314;2023-05-15T08:19:53;21.88;;;18.20;;
66374;SDS011;53173;52.176;5.314;2023-05-15T08:22:19;18.63;;;16.70;;
66374;SDS011;53173;52.176;5.314;2023-05-15T08:24:46;19.42;;;17.42;;
66374;SDS011;53173;52.176;5.314;2023-05-15T08:27:20;19.05;;;17.08;;
66374;SDS011;53173;52.176;5.314;2023-05-15T08:29:46;23.73;;;18.13;;
66374;SDS011;53173;52.176;5.314;2023-05-15T08:32:13;20.05;;;17.67;;
66374;SDS011;53173;52.176;5.314;2023-05-15T08:34:40;23.50;;;17.10;;
66374;SDS011;53173;52.176;5.314;2023-05-15T08:37:07;22.73;;;17.90;;
66374;SDS011;53173;52.176;5.314;2023-05-15T08:39:34;19.63;;;15.63;;
66374;SDS011;53173;52.176;5.314;2023-05-15T08:42:04;16.10;;;14.52;;
66374;SDS011;53173;52.176;5.314;2023-05-15T08:44:40;21.63;;;14.75;;
66374;SDS011;53173;52.176;5.314;2023-05-15T08:47:07;16.15;;;14.40;;
66374;SDS011;53173;52.176;5.314;2023-05-15T08:49:38;17.77;;;14.65;;
66374;SDS011;53173;52.176;5.314;2023-05-15T08:54:47;15.75;;;14.15;;
66374;SDS011;53173;52.176;5.314;2023-05-15T09:00:07;15.35;;;13.85;;
66374;SDS011;53173;52.176;5.314;2023-05-15T09:02:37;18.52;;;14.90;;
66374;SDS011;53173;52.176;5.314;2023-05-15T09:05:05;16.17;;;14.57;;
66374;SDS011;53173;52.176;5.314;2023-05-15T09:07:33;16.67;;;15.00;;
66374;SDS011;53173;52.176;5.314;2023-05-15T09:10:01;17.30;;;15.68;;
66374;SDS011;53173;52.176;5.314;2023-05-15T09:12:30;17.83;;;15.93;;
66374;SDS011;53173;52.176;5.314;2023-05-15T09:15:08;17.90;;;15.50;;
66374;SDS011;53173;52.176;5.314;2023-05-15T09:17:37;18.77;;;16.77;;
66374;SDS011;53173;52.176;5.314;2023-05-15T09:20:05;16.98;;;15.40;;
66374;SDS011;53173;52.176;5.314;2023-05-15T09:22:36;17.17;;;15.40;;
66374;SDS011;53173;52.176;5.314;2023-05-15T09:25:03;16.33;;;14.50;;
66374;SDS011;53173;52.176;5.314;2023-05-15T09:27:39;18.40;;;16.52;;
66374;SDS011;53173;52.176;5.314;2023-05-15T09:30:08;19.67;;;16.70;;
66374;SDS011;53173;52.176;5.314;2023-05-15T09:32:35;21.13;;;17.60;;
66374;SDS011;53173;52.176;5.314;2023-05-15T09:35:03;21.20;;;17.77;;
66374;SDS011;53173;52.176;5.314;2023-05-15T09:37:57;31.42;;;23.50;;
66374;SDS011;53173;52.176;5.314;2023-05-15T09:40:28;29.02;;;24.77;;
66374;SDS011;53173;52.176;5.314;2023-05-15T09:42:57;29.67;;;25.85;;
66374;SDS011;53173;52.176;5.314;2023-05-15T09:45:25;32.35;;;26.73;;
66374;SDS011;53173;52.176;5.314;2023-05-15T09:47:55;33.05;;;25.15;;
66374;SDS011;53173;52.176;5.314;2023-05-15T09:50:30;28.02;;;24.92;;
66374;SDS011;53173;52.176;5.314;2023-05-15T09:53:02;35.30;;;26.80;;
66374;SDS011;53173;52.176;5.314;2023-05-15T09:55:31;33.83;;;27.63;;
66374;SDS011;53173;52.176;5.314;2023-05-15T09:58:16;32.50;;;27.85;;
66374;SDS011;53173;52.176;5.314;2023-05-15T10:00:44;35.88;;;28.10;;
66374;SDS011;53173;52.176;5.314;2023-05-15T10:03:16;36.67;;;30.45;;
66374;SDS011;53173;52.176;5.314;2023-05-15T10:08:49;37.33;;;30.42;;
66374;SDS011;53173;52.176;5.314;2023-05-15T10:11:17;35.25;;;28.30;;
66374;SDS011;53173;52.176;5.314;2023-05-15T10:13:46;39.22;;;29.20;;
66374;SDS011;53173;52.176;5.314;2023-05-15T10:16:19;39.63;;;30.25;;
66374;SDS011;53173;52.176;5.314;2023-05-15T10:18:47;39.03;;;29.63;;
66374;SDS011;53173;52.176;5.314;2023-05-15T10:21:16;43.30;;;30.30;;
66374;SDS011;53173;52.176;5.314;2023-05-15T10:23:49;45.67;;;31.35;;
66374;SDS011;53173;52.176;5.314;2023-05-15T10:26:35;43.50;;;31.70;;
66374;SDS011;53173;52.176;5.314;2023-05-15T10:29:04;43.17;;;32.03;;
66374;SDS011;53173;52.176;5.314;2023-05-15T10:31:32;46.45;;;32.80;;
66374;SDS011;53173;52.176;5.314;2023-05-15T10:34:01;44.10;;;33.53;;
66374;SDS011;53173;52.176;5.314;2023-05-15T10:36:33;42.45;;;32.78;;
66374;SDS011;53173;52.176;5.314;2023-05-15T10:39:02;39.45;;;31.05;;
66374;SDS011;53173;52.176;5.314;2023-05-15T10:41:31;41.60;;;31.77;;
66374;SDS011;53173;52.176;5.314;2023-05-15T10:44:01;35.35;;;29.23;;
66374;SDS011;53173;52.176;5.314;2023-05-15T10:49:32;30.80;;;26.27;;
66374;SDS011;53173;52.176;5.314;2023-05-15T10:51:59;34.40;;;25.17;;
66374;SDS011;53173;52.176;5.314;2023-05-15T10:54:27;30.42;;;24.45;;
66374;SDS011;53173;52.176;5.314;2023-05-15T10:59:40;31.60;;;24.58;;
66374;SDS011;53173;52.176;5.314;2023-05-15T11:02:24;30.77;;;24.77;;
66374;SDS011;53173;52.176;5.314;2023-05-15T11:04:56;33.28;;;23.45;;
66374;SDS011;53173;52.176;5.314;2023-05-15T11:07:31;25.73;;;22.55;;
66374;SDS011;53173;52.176;5.314;2023-05-15T11:09:57;26.30;;;22.38;;
66374;SDS011;53173;52.176;5.314;2023-05-15T11:12:25;26.30;;;22.02;;
66374;SDS011;53173;52.176;5.314;2023-05-15T11:17:38;28.88;;;22.23;;
66374;SDS011;53173;52.176;5.314;2023-05-15T11:20:39;25.98;;;21.25;;
66374;SDS011;53173;52.176;5.314;2023-05-15T11:23:07;25.60;;;21.17;;
66374;SDS011;53173;52.176;5.314;2023-05-15T11:25:35;26.27;;;20.88;;
66374;SDS011;53173;52.176;5.314;2023-05-15T11:28:03;22.95;;;20.50;;
66374;SDS011;53173;52.176;5.314;2023-05-15T11:33:11;24.27;;;19.95;;
66374;SDS011;53173;52.176;5.314;2023-05-15T11:35:41;22.48;;;19.25;;
66374;SDS011;53173;52.176;5.314;2023-05-15T11:38:14;20.20;;;17.98;;
66374;SDS011;53173;52.176;5.314;2023-05-15T11:40:46;22.30;;;17.92;;
66374;SDS011;53173;52.176;5.314;2023-05-15T11:43:24;24.38;;;18.75;;
66374;SDS011;53173;52.176;5.314;2023-05-15T11:46:07;22.45;;;18.77;;
66374;SDS011;53173;52.176;5.314;2023-05-15T11:48:36;20.75;;;18.65;;
66374;SDS011;53173;52.176;5.314;2023-05-15T11:51:24;20.00;;;17.70;;
66374;SDS011;53173;52.176;5.314;2023-05-15T11:53:53;28.05;;;18.83;;
66374;SDS011;53173;52.176;5.314;2023-05-15T12:00:22;19.33;;;16.98;;
66374;SDS011;53173;52.176;5.314;2023-05-15T12:02:50;21.48;;;15.93;;
66374;SDS011;53173;52.176;5.314;2023-05-15T12:05:17;19.75;;;17.73;;
66374;SDS011;53173;52.176;5.314;2023-05-15T12:07:44;17.23;;;15.43;;
66374;SDS011;53173;52.176;5.314;2023-05-15T12:10:11;16.58;;;14.80;;
66374;SDS011;53173;52.176;5.314;2023-05-15T12:12:39;16.00;;;14.43;;
66374;SDS011;53173;52.176;5.314;2023-05-15T12:15:08;15.00;;;13.00;;
66374;SDS011;53173;52.176;5.314;2023-05-15T12:17:39;15.00;;;13.63;;
66374;SDS011;53173;52.176;5.314;2023-05-15T12:20:14;14.30;;;12.90;;
66374;SDS011;53173;52.176;5.314;2023-05-15T12:22:44;14.48;;;13.07;;
66374;SDS011;53173;52.176;5.314;2023-05-15T12:25:11;14.48;;;13.02;;
66374;SDS011;53173;52.176;5.314;2023-05-15T12:27:39;15.18;;;13.60;;
66374;SDS011;53173;52.176;5.314;2023-05-15T12:30:07;14.93;;;13.60;;
66374;SDS011;53173;52.176;5.314;2023-05-15T12:32:36;13.45;;;12.25;;
66374;SDS011;53173;52.176;5.314;2023-05-15T12:35:04;12.52;;;11.40;;
66374;SDS011;53173;52.176;5.314;2023-05-15T12:37:32;13.50;;;12.20;;
66374;SDS011;53173;52.176;5.314;2023-05-15T12:40:02;13.18;;;11.98;;
66374;SDS011;53173;52.176;5.314;2023-05-15T12:42:40;12.35;;;11.07;;
66374;SDS011;53173;52.176;5.314;2023-05-15T12:45:15;12.32;;;11.25;;
66374;SDS011;53173;52.176;5.314;2023-05-15T12:47:44;12.73;;;11.52;;
66374;SDS011;53173;52.176;5.314;2023-05-15T12:50:18;12.32;;;11.13;;
66374;SDS011;53173;52.176;5.314;2023-05-15T12:52:49;12.55;;;11.23;;
66374;SDS011;53173;52.176;5.314;2023-05-15T12:55:31;13.25;;;11.60;;
66374;SDS011;53173;52.176;5.314;2023-05-15T12:58:00;11.85;;;10.65;;
66374;SDS011;53173;52.176;5.314;2023-05-15T13:00:35;12.05;;;10.77;;
66374;SDS011;53173;52.176;5.314;2023-05-15T13:03:03;12.85;;;11.27;;
66374;SDS011;53173;52.176;5.314;2023-05-15T13:05:31;13.30;;;12.00;;
66374;SDS011;53173;52.176;5.314;2023-05-15T13:08:01;12.18;;;10.90;;
66374;SDS011;53173;52.176;5.314;2023-05-15T13:10:33;13.55;;;12.30;;
66374;SDS011;53173;52.176;5.314;2023-05-15T13:13:01;13.48;;;11.65;;
66374;SDS011;53173;52.176;5.314;2023-05-15T13:15:35;16.42;;;13.45;;
66374;SDS011;53173;52.176;5.314;2023-05-15T13:20:42;11.80;;;10.38;;
66374;SDS011;53173;52.176;5.314;2023-05-15T13:23:11;13.85;;;11.07;;
66374;SDS011;53173;52.176;5.314;2023-05-15T13:28:38;14.20;;;10.60;;
66374;SDS011;53173;52.176;5.314;2023-05-15T13:31:05;17.45;;;12.38;;
66374;SDS011;53173;52.176;5.314;2023-05-15T13:33:39;13.57;;;10.23;;
66374;SDS011;53173;52.176;5.314;2023-05-15T13:36:11;17.30;;;10.88;;
66374;SDS011;53173;52.176;5.314;2023-05-15T13:38:39;12.07;;;10.73;;
66374;SDS011;53173;52.176;5.314;2023-05-15T13:43:44;13.55;;;12.15;;
66374;SDS011;53173;52.176;5.314;2023-05-15T13:49:09;16.15;;;12.18;;
66374;SDS011;53173;52.176;5.314;2023-05-15T13:51:36;13.77;;;10.30;;
66374;SDS011;53173;52.176;5.314;2023-05-15T13:54:09;15.98;;;10.38;;
66374;SDS011;53173;52.176;5.314;2023-05-15T13:56:42;16.27;;;10.35;;
66374;SDS011;53173;52.176;5.314;2023-05-15T13:59:09;16.02;;;10.27;;
66374;SDS011;53173;52.176;5.314;2023-05-15T14:01:37;14.68;;;9.82;;
66374;SDS011;53173;52.176;5.314;2023-05-15T14:04:03;9.77;;;8.82;;
66374;SDS011;53173;52.176;5.314;2023-05-15T14:06:35;12.38;;;9.00;;
66374;SDS011;53173;52.176;5.314;2023-05-15T14:09:02;9.15;;;8.25;;
66374;SDS011;53173;52.176;5.314;2023-05-15T14:11:29;10.30;;;8.50;;
66374;SDS011;53173;52.176;5.314;2023-05-15T14:13:57;9.45;;;8.23;;
66374;SDS011;53173;52.176;5.314;2023-05-15T14:19:16;10.60;;;8.30;;
66374;SDS011;53173;52.176;5.314;2023-05-15T14:21:43;13.07;;;8.70;;
66374;SDS011;53173;52.176;5.314;2023-05-15T14:24:10;11.50;;;8.88;;
66374;SDS011;53173;52.176;5.314;2023-05-15T14:26:37;12.50;;;8.35;;
66374;SDS011;53173;52.176;5.314;2023-05-15T14:29:04;12.68;;;8.60;;
66374;SDS011;53173;52.176;5.314;2023-05-15T14:31:32;15.32;;;7.80;;
66374;SDS011;53173;52.176;5.314;2023-05-15T14:33:59;14.57;;;7.45;;
66374;SDS011;53173;52.176;5.314;2023-05-15T14:36:31;10.80;;;7.75;;
66374;SDS011;53173;52.176;5.314;2023-05-15T14:38:58;10.43;;;8.38;;
66374;SDS011;53173;52.176;5.314;2023-05-15T14:41:27;11.60;;;7.90;;
66374;SDS011;53173;52.176;5.314;2023-05-15T14:43:54;9.98;;;7.63;;
66374;SDS011;53173;52.176;5.314;2023-05-15T14:46:27;13.18;;;8.68;;
66374;SDS011;53173;52.176;5.314;2023-05-15T14:48:54;15.30;;;8.80;;
66374;SDS011;53173;52.176;5.314;2023-05-15T14:51:21;12.10;;;8.75;;
66374;SDS011;53173;52.176;5.314;2023-05-15T14:53:48;12.60;;;7.82;;
66374;SDS011;53173;52.176;5.314;2023-05-15T14:56:14;11.45;;;8.20;;
66374;SDS011;53173;52.176;5.314;2023-05-15T14:58:41;14.95;;;7.32;;
66374;SDS011;53173;52.176;5.314;2023-05-15T15:01:08;14.40;;;7.50;;
66374;SDS011;53173;52.176;5.314;2023-05-15T15:03:35;10.77;;;7.38;;
66374;SDS011;53173;52.176;5.314;2023-05-15T15:06:08;11.45;;;7.80;;
66374;SDS011;53173;52.176;5.314;2023-05-15T15:08:35;9.88;;;7.57;;
66374;SDS011;53173;52.176;5.314;2023-05-15T15:11:02;8.52;;;7.07;;
66374;SDS011;53173;52.176;5.314;2023-05-15T15:13:31;12.98;;;7.20;;
66374;SDS011;53173;52.176;5.314;2023-05-15T15:16:03;10.65;;;6.90;;
66374;SDS011;53173;52.176;5.314;2023-05-15T15:18:31;8.93;;;6.88;;
66374;SDS011;53173;52.176;5.314;2023-05-15T15:20:58;11.38;;;7.10;;
66374;SDS011;53173;52.176;5.314;2023-05-15T15:23:25;7.15;;;5.45;;
66374;SDS011;53173;52.176;5.314;2023-05-15T15:25:52;11.57;;;5.97;;
66374;SDS011;53173;52.176;5.314;2023-05-15T15:28:19;10.95;;;5.43;;
66374;SDS011;53173;52.176;5.314;2023-05-15T15:30:49;6.15;;;5.60;;
66374;SDS011;53173;52.176;5.314;2023-05-15T15:33:16;8.27;;;5.85;;
66374;SDS011;53173;52.176;5.314;2023-05-15T15:35:44;12.35;;;6.60;;
66374;SDS011;53173;52.176;5.314;2023-05-15T15:38:11;8.52;;;5.50;;
66374;SDS011;53173;52.176;5.314;2023-05-15T15:40:53;7.25;;;5.85;;
66374;SDS011;53173;52.176;5.314;2023-05-15T15:43:21;6.20;;;5.35;;
66374;SDS011;53173;52.176;5.314;2023-05-15T15:49:14;9.50;;;5.32;;
66374;SDS011;53173;52.176;5.314;2023-05-15T15:51:41;6.25;;;5.65;;
66374;SDS011;53173;52.176;5.314;2023-05-15T15:54:10;11.55;;;6.18;;
66374;SDS011;53173;52.176;5.314;2023-05-15T15:56:37;8.73;;;5.57;;
66374;SDS011;53173;52.176;5.314;2023-05-15T15:59:04;9.38;;;6.22;;
66374;SDS011;53173;52.176;5.314;2023-05-15T16:01:31;8.27;;;5.63;;